Terminal Aerodrome Forecast
Issued by NWS

Home | Current Version | Previous Version | Graphics & Text | Print | Product List | Glossary On
Versions: 1 2 3 4 5 6 7 8 9 10 11 12 13 14
213
FTUS41 KCLE 261733
TAFFDY
TAF
KFDY 261733Z 2618/2718 17014G24KT P6SM FEW050 SCT250
     FM270000 17014KT P6SM BKN250
     FM271400 19015G25KT 6SM -SHRA BKN040 OVC100=

USA.gov is the U.S. government's official web portal to all federal, state and local government web resources and services.